Time;durP1;ratioP1;P1;durP2;ratioP2;P2;SDS_P1;SDS_P2;PMS_P1;PMS_P2;Temp;Humidity;BMP_temperature;BMP_pressure;BME280_temperature;BME280_humidity;BME280_pressure;Samples;Min_cycle;Max_cycle;Signal;HPM_P1;HPM_P2
2023/09/03 00:00:22;;;;;;;7.95;7.35;;;;;;;;;;4938836;28;20443;-79
2023/09/03 00:02:48;;;;;;;8.38;7.68;;;;;;;;;;4939166;28;20066;-79
2023/09/03 00:05:14;;;;;;;8.73;7.75;;;;;;;;;;4944942;28;20059;-81
2023/09/03 00:07:41;;;;;;;7.65;7.03;;;;;;;;;;4958084;28;20184;-81
2023/09/03 00:10:09;;;;;;;11.48;7.93;;;;;;;;;;4964482;28;20035;-82
2023/09/03 00:12:35;;;;;;;8.35;7.65;;;;;;;;;;4962436;28;20030;-82
2023/09/03 00:15:03;;;;;;;10.35;7.55;;;;;;;;;;4944604;28;20133;-79
2023/09/03 00:17:30;;;;;;;7.78;7.10;;;;;;;;;;4944103;28;20578;-80
2023/09/03 00:19:59;;;;;;;8.02;7.22;;;;;;;;;;4961185;28;20073;-80
2023/09/03 00:22:25;;;;;;;8.55;7.75;;;;;;;;;;4959447;28;20035;-81
2023/09/03 00:24:51;;;;;;;7.85;7.28;;;;;;;;;;4942231;28;20051;-81
2023/09/03 00:27:17;;;;;;;8.13;7.53;;;;;;;;;;4942855;28;20069;-80
2023/09/03 00:29:50;;;;;;;8.30;7.65;;;;;;;;;;4957721;28;20126;-80
2023/09/03 00:32:16;;;;;;;10.95;7.97;;;;;;;;;;4959434;28;20039;-80
2023/09/03 00:34:42;;;;;;;8.68;7.78;;;;;;;;;;4941717;28;20034;-80
2023/09/03 00:37:08;;;;;;;9.25;7.78;;;;;;;;;;4958097;28;20507;-81
2023/09/03 00:39:34;;;;;;;8.35;7.30;;;;;;;;;;4974669;28;20090;-80
2023/09/03 00:42:06;;;;;;;9.52;8.32;;;;;;;;;;4960308;28;20221;-81
2023/09/03 00:44:35;;;;;;;8.55;7.72;;;;;;;;;;4960413;28;20034;-81
2023/09/03 00:47:01;;;;;;;8.90;8.20;;;;;;;;;;4944979;28;20051;-80
2023/09/03 00:49:27;;;;;;;8.85;8.00;;;;;;;;;;4945169;28;20181;-79
2023/09/03 00:51:54;;;;;;;8.45;7.78;;;;;;;;;;4960809;28;20039;-81
2023/09/03 00:54:21;;;;;;;9.00;8.20;;;;;;;;;;4945528;28;20051;-82
2023/09/03 00:56:48;;;;;;;8.57;7.88;;;;;;;;;;4960433;28;20043;-80
2023/09/03 00:59:14;;;;;;;8.48;7.78;;;;;;;;;;4961150;28;20054;-83
2023/09/03 01:01:40;;;;;;;11.00;8.52;;;;;;;;;;4943424;28;20101;-80
2023/09/03 01:04:06;;;;;;;7.93;7.25;;;;;;;;;;4942464;28;20388;-78
2023/09/03 01:06:32;;;;;;;9.38;8.23;;;;;;;;;;4973662;28;20050;-79
2023/09/03 01:09:04;;;;;;;14.85;13.27;;;;;;;;;;4941677;28;20065;-79
2023/09/03 01:11:46;;;;;;;8.73;7.93;;;;;;;;;;4957345;28;20048;-79
2023/09/03 01:14:12;;;;;;;8.90;8.18;;;;;;;;;;4956491;28;20031;-79
2023/09/03 01:16:47;;;;;;;9.40;8.25;;;;;;;;;;4972150;28;20038;-79
2023/09/03 01:19:36;;;;;;;8.90;8.18;;;;;;;;;;4928728;28;20113;-79
2023/09/03 01:22:06;;;;;;;9.02;8.13;;;;;;;;;;4879598;29;20422;-80
2023/09/03 01:24:33;;;;;;;11.55;8.20;;;;;;;;;;4933477;28;20043;-78
2023/09/03 01:27:06;;;;;;;8.27;7.57;;;;;;;;;;4942328;28;20042;-79
2023/09/03 01:29:32;;;;;;;9.00;8.07;;;;;;;;;;4947707;28;20042;-79
2023/09/03 01:32:23;;;;;;;8.40;7.78;;;;;;;;;;4942254;28;20503;-79
2023/09/03 01:34:49;;;;;;;8.98;8.18;;;;;;;;;;4940965;28;20065;-80
2023/09/03 01:37:15;;;;;;;7.22;6.72;;;;;;;;;;4941566;28;20595;-80
2023/09/03 01:39:41;;;;;;;7.50;6.97;;;;;;;;;;4956720;28;20500;-79
2023/09/03 01:42:26;;;;;;;7.78;6.55;;;;;;;;;;4957172;28;20043;-79
2023/09/03 01:44:52;;;;;;;9.75;7.28;;;;;;;;;;4941742;28;20085;-80
2023/09/03 01:47:23;;;;;;;8.30;7.18;;;;;;;;;;4941452;28;20480;-81
2023/09/03 01:49:49;;;;;;;;;;;;;;;;;;4974950;28;20458;-79
2023/09/03 01:52:30;;;;;;;10.13;7.05;;;;;;;;;;4941155;28;20017;-78
2023/09/03 01:54:55;;;;;;;;;;;;;;;;;;4957238;28;20053;-79
2023/09/03 01:57:24;;;;;;;10.15;6.85;;;;;;;;;;4974718;28;19913;-79
2023/09/03 01:59:58;;;;;;;8.50;7.70;;;;;;;;;;4941729;28;20041;-79
2023/09/03 02:02:24;;;;;;;8.25;7.65;;;;;;;;;;4942031;28;20041;-79
2023/09/03 02:04:51;;;;;;;8.30;7.60;;;;;;;;;;4957711;28;20030;-77
2023/09/03 02:07:17;;;;;;;8.38;7.78;;;;;;;;;;4940747;28;20479;-79
2023/09/03 02:09:44;;;;;;;8.90;7.03;;;;;;;;;;4971987;28;20389;-78
2023/09/03 02:15:25;;;;;;;8.73;7.88;;;;;;;;;;4956469;28;20038;-82
2023/09/03 02:17:55;;;;;;;8.50;7.70;;;;;;;;;;4973719;28;20553;-79
2023/09/03 02:20:21;;;;;;;9.10;8.40;;;;;;;;;;4925773;28;20138;-80
2023/09/03 02:22:55;;;;;;;8.65;7.88;;;;;;;;;;4958445;28;20121;-79
2023/09/03 02:25:21;;;;;;;7.93;7.30;;;;;;;;;;4941285;28;20065;-81
2023/09/03 02:27:47;;;;;;;8.52;7.68;;;;;;;;;;4941460;28;20034;-81
2023/09/03 02:30:13;;;;;;;8.05;7.45;;;;;;;;;;4941173;28;20411;-80
2023/09/03 02:32:39;;;;;;;8.55;7.78;;;;;;;;;;4957720;28;20414;-78
2023/09/03 02:35:05;;;;;;;8.27;7.55;;;;;;;;;;4941419;28;20038;-80
2023/09/03 02:37:32;;;;;;;8.80;8.13;;;;;;;;;;4946506;28;20041;-79
2023/09/03 02:39:58;;;;;;;8.32;7.53;;;;;;;;;;4948093;28;20034;-79
2023/09/03 02:42:25;;;;;;;8.65;7.85;;;;;;;;;;4942008;28;20546;-80
2023/09/03 02:44:53;;;;;;;8.38;7.68;;;;;;;;;;4940534;28;20614;-80
2023/09/03 02:47:19;;;;;;;8.57;7.68;;;;;;;;;;4941893;28;20137;-79
2023/09/03 02:49:45;;;;;;;11.38;7.72;;;;;;;;;;4941156;28;20037;-80
2023/09/03 02:52:19;;;;;;;8.05;7.45;;;;;;;;;;4959592;28;20046;-80
2023/09/03 02:54:45;;;;;;;8.82;8.02;;;;;;;;;;4957463;28;20059;-80
2023/09/03 02:57:11;;;;;;;9.25;8.43;;;;;;;;;;4941602;28;20101;-78
2023/09/03 02:59:37;;;;;;;8.35;7.75;;;;;;;;;;4941989;28;20491;-79
2023/09/03 03:02:03;;;;;;;8.95;8.15;;;;;;;;;;4941603;28;20035;-80
2023/09/03 03:04:35;;;;;;;8.98;8.20;;;;;;;;;;4973958;28;20050;-78
2023/09/03 03:07:01;;;;;;;8.35;7.72;;;;;;;;;;4974042;28;20058;-81
2023/09/03 03:09:31;;;;;;;8.65;7.95;;;;;;;;;;4958461;28;20038;-80
2023/09/03 03:11:57;;;;;;;8.70;7.97;;;;;;;;;;4941395;28;20538;-80
2023/09/03 03:14:24;;;;;;;9.02;8.07;;;;;;;;;;4940587;28;20035;-80
2023/09/03 03:16:50;;;;;;;8.80;8.00;;;;;;;;;;4941316;28;20125;-79
2023/09/03 03:19:17;;;;;;;9.05;8.23;;;;;;;;;;4964120;28;20534;-80
2023/09/03 03:21:50;;;;;;;9.75;8.25;;;;;;;;;;4956356;28;20140;-79
2023/09/03 03:24:19;;;;;;;8.02;7.45;;;;;;;;;;4950018;28;20041;-81
2023/09/03 03:26:45;;;;;;;8.48;7.82;;;;;;;;;;4941899;28;20427;-81
2023/09/03 03:29:16;;;;;;;8.70;8.10;;;;;;;;;;4941585;28;20035;-81
2023/09/03 03:31:47;;;;;;;8.50;7.90;;;;;;;;;;4940703;28;20121;-80
2023/09/03 03:34:14;;;;;;;8.63;7.93;;;;;;;;;;4938670;28;20034;-80
2023/09/03 03:36:44;;;;;;;8.75;7.85;;;;;;;;;;4950122;28;20051;-80
2023/09/03 03:39:10;;;;;;;8.48;7.68;;;;;;;;;;4940398;28;20050;-80
2023/09/03 03:41:37;;;;;;;8.65;7.85;;;;;;;;;;4939310;28;20344;-80
2023/09/03 03:44:05;;;;;;;8.60;7.90;;;;;;;;;;4942710;28;20031;-79
2023/09/03 03:46:34;;;;;;;8.85;8.23;;;;;;;;;;4945697;28;20093;-80
2023/09/03 03:49:01;;;;;;;8.90;8.10;;;;;;;;;;4976111;28;20145;-81
2023/09/03 03:51:27;;;;;;;9.32;8.43;;;;;;;;;;4943102;28;20038;-79
2023/09/03 03:53:53;;;;;;;10.10;9.20;;;;;;;;;;4942405;28;20426;-81
2023/09/03 03:56:19;;;;;;;8.95;8.02;;;;;;;;;;4942874;28;20435;-81
2023/09/03 03:58:46;;;;;;;9.05;8.23;;;;;;;;;;4942376;28;20094;-80
2023/09/03 04:01:16;;;;;;;9.27;8.50;;;;;;;;;;4974372;28;20069;-80
2023/09/03 04:03:44;;;;;;;8.93;8.23;;;;;;;;;;4974389;28;20126;-81
2023/09/03 04:06:36;;;;;;;8.70;8.10;;;;;;;;;;4974550;28;20054;-79
2023/09/03 04:09:02;;;;;;;9.15;8.45;;;;;;;;;;4941889;28;20098;-80
2023/09/03 04:11:29;;;;;;;9.50;8.70;;;;;;;;;;4942651;28;20031;-79
2023/09/03 04:13:55;;;;;;;11.50;8.63;;;;;;;;;;4942264;28;20031;-79
2023/09/03 04:16:22;;;;;;;9.85;8.95;;;;;;;;;;4942258;28;20122;-80
2023/09/03 04:18:49;;;;;;;10.13;9.32;;;;;;;;;;4942451;28;20073;-79
2023/09/03 04:21:16;;;;;;;10.32;9.52;;;;;;;;;;4942364;28;20396;-80
2023/09/03 04:23:42;;;;;;;10.15;9.35;;;;;;;;;;4942220;28;20039;-79
2023/09/03 04:26:09;;;;;;;10.25;9.32;;;;;;;;;;4941823;28;20035;-80
2023/09/03 04:28:43;;;;;;;9.90;8.88;;;;;;;;;;4944208;28;20042;-81
2023/09/03 04:31:10;;;;;;;10.57;9.52;;;;;;;;;;4957936;28;20194;-79
2023/09/03 04:33:39;;;;;;;10.75;9.75;;;;;;;;;;4942478;28;20038;-81
2023/09/03 04:36:09;;;;;;;13.60;10.05;;;;;;;;;;4942370;28;20042;-81
2023/09/03 04:38:35;;;;;;;11.15;10.05;;;;;;;;;;4941834;28;20118;-80
2023/09/03 04:41:04;;;;;;;10.63;9.68;;;;;;;;;;4941937;28;20038;-79
2023/09/03 04:43:32;;;;;;;10.80;9.90;;;;;;;;;;4942737;28;20403;-80
2023/09/03 04:45:59;;;;;;;10.90;9.95;;;;;;;;;;4941851;28;20196;-81
2023/09/03 04:48:26;;;;;;;10.15;9.25;;;;;;;;;;4942002;28;20488;-80
2023/09/03 04:50:53;;;;;;;10.77;9.77;;;;;;;;;;4941464;28;20031;-78
2023/09/03 04:53:19;;;;;;;10.18;9.30;;;;;;;;;;4941702;28;20046;-80
2023/09/03 04:55:46;;;;;;;11.00;9.95;;;;;;;;;;4946060;28;20045;-80
2023/09/03 04:58:12;;;;;;;9.15;8.45;;;;;;;;;;4944605;28;20088;-80
2023/09/03 05:00:39;;;;;;;9.25;8.35;;;;;;;;;;4945010;28;20034;-81
2023/09/03 05:03:11;;;;;;;9.10;8.50;;;;;;;;;;4960481;28;20125;-81
2023/09/03 05:05:38;;;;;;;;;;;;;;;;;;4977695;28;20097;-80
2023/09/03 05:08:35;;;;;;;14.25;10.85;;;;;;;;;;4960344;28;19921;-80
2023/09/03 05:11:12;;;;;;;9.02;8.13;;;;;;;;;;4976093;28;20037;-80
2023/09/03 05:13:39;;;;;;;8.43;7.60;;;;;;;;;;4945441;28;20037;-80
2023/09/03 05:16:07;;;;;;;9.15;8.35;;;;;;;;;;4960262;28;20173;-80
2023/09/03 05:18:38;;;;;;;8.02;7.18;;;;;;;;;;4961793;28;20031;-81
2023/09/03 05:21:08;;;;;;;7.88;7.30;;;;;;;;;;4944750;28;20049;-80
2023/09/03 05:23:38;;;;;;;11.15;7.85;;;;;;;;;;4961824;28;20046;-80
2023/09/03 05:26:05;;;;;;;9.50;8.27;;;;;;;;;;4960466;28;20039;-80
2023/09/03 05:28:32;;;;;;;8.48;7.80;;;;;;;;;;4944526;28;20133;-80
2023/09/03 05:30:59;;;;;;;8.57;7.78;;;;;;;;;;4944933;28;20034;-80
2023/09/03 05:33:27;;;;;;;10.15;7.20;;;;;;;;;;4945011;28;20125;-80
2023/09/03 05:35:55;;;;;;;8.45;7.68;;;;;;;;;;4976304;28;20038;-81
2023/09/03 05:38:21;;;;;;;7.35;6.85;;;;;;;;;;4944423;28;20089;-81
2023/09/03 05:40:50;;;;;;;9.10;8.35;;;;;;;;;;4944977;28;20034;-79
2023/09/03 05:43:17;;;;;;;8.20;7.40;;;;;;;;;;4950109;28;20503;-81
2023/09/03 05:45:44;;;;;;;8.27;7.55;;;;;;;;;;4954176;28;20046;-81
2023/09/03 05:48:17;;;;;;;9.13;8.23;;;;;;;;;;4954786;28;20098;-81
2023/09/03 05:50:47;;;;;;;8.70;7.97;;;;;;;;;;4970800;28;20092;-80
2023/09/03 05:53:13;;;;;;;10.70;9.00;;;;;;;;;;4952888;28;20121;-81
2023/09/03 05:55:41;;;;;;;8.55;7.95;;;;;;;;;;4984601;28;20053;-80
2023/09/03 05:58:10;;;;;;;9.55;8.40;;;;;;;;;;4951378;28;20042;-81
2023/09/03 06:00:40;;;;;;;7.95;7.13;;;;;;;;;;4954085;28;20097;-80
2023/09/03 06:03:06;;;;;;;;;;;;;;;;;;4952968;28;20046;-80
2023/09/03 06:05:38;;;;;;;7.38;6.65;;;;;;;;;;4954693;28;19913;-80
2023/09/03 06:08:04;;;;;;;7.32;6.80;;;;;;;;;;4983104;28;20518;-80
2023/09/03 06:10:30;;;;;;;7.55;6.63;;;;;;;;;;4977100;28;20096;-81
2023/09/03 06:12:56;;;;;;;7.13;6.57;;;;;;;;;;4949994;28;20038;-81
2023/09/03 06:15:22;;;;;;;6.25;5.72;;;;;;;;;;4996050;28;20060;-80
2023/09/03 06:17:52;;;;;;;7.30;6.70;;;;;;;;;;4944826;28;20034;-81
2023/09/03 06:20:19;;;;;;;8.50;7.10;;;;;;;;;;4960750;28;20054;-82
2023/09/03 06:22:56;;;;;;;7.03;6.43;;;;;;;;;;4976845;28;20031;-81
2023/09/03 06:25:23;;;;;;;7.05;6.40;;;;;;;;;;4961025;28;20057;-81
2023/09/03 06:27:49;;;;;;;6.97;6.47;;;;;;;;;;4966333;28;20072;-79
2023/09/03 06:30:15;;;;;;;7.65;6.82;;;;;;;;;;4953191;28;20077;-81
2023/09/03 06:32:42;;;;;;;7.28;6.65;;;;;;;;;;4955403;28;20038;-81
2023/09/03 06:35:08;;;;;;;7.28;6.55;;;;;;;;;;4979326;28;20030;-80
2023/09/03 06:37:34;;;;;;;7.63;6.78;;;;;;;;;;4928613;28;20042;-81
2023/09/03 06:40:00;;;;;;;8.07;6.75;;;;;;;;;;4939423;28;20031;-82
2023/09/03 06:42:27;;;;;;;8.63;6.72;;;;;;;;;;4942942;28;20042;-81
2023/09/03 06:44:54;;;;;;;7.45;6.75;;;;;;;;;;4942428;28;20061;-81
2023/09/03 06:47:20;;;;;;;13.18;6.65;;;;;;;;;;4942453;28;20093;-81
2023/09/03 06:49:46;;;;;;;9.32;8.27;;;;;;;;;;4942545;28;20034;-81
2023/09/03 06:52:20;;;;;;;11.45;10.30;;;;;;;;;;4960455;28;20050;-82
2023/09/03 06:54:46;;;;;;;8.93;6.10;;;;;;;;;;4957547;28;20046;-80
2023/09/03 06:57:15;;;;;;;8.38;5.38;;;;;;;;;;4973905;28;20887;-80
2023/09/03 06:59:42;;;;;;;5.68;5.28;;;;;;;;;;4973384;28;20046;-81
2023/09/03 07:02:09;;;;;;;8.02;5.18;;;;;;;;;;4952625;28;20045;-81
2023/09/03 07:04:35;;;;;;;5.53;4.95;;;;;;;;;;4942663;28;20046;-81
2023/09/03 07:07:35;;;;;;;6.18;5.57;;;;;;;;;;4958143;28;20061;-82
2023/09/03 07:10:01;;;;;;;;;;;;;;;;;;4942333;28;20074;-81
2023/09/03 07:12:28;;;;;;;7.43;5.25;;;;;;;;;;4958061;28;19913;-80
2023/09/03 07:14:54;;;;;;;11.15;5.95;;;;;;;;;;4942083;28;20084;-80
2023/09/03 07:17:20;;;;;;;8.50;5.05;;;;;;;;;;4942721;28;20499;-81
2023/09/03 07:19:46;;;;;;;5.65;5.18;;;;;;;;;;4961421;28;20038;-81
2023/09/03 07:22:12;;;;;;;6.20;5.60;;;;;;;;;;4962107;28;20042;-81
2023/09/03 07:24:51;;;;;;;6.82;5.60;;;;;;;;;;4948039;28;20062;-81
2023/09/03 07:27:17;;;;;;;18.05;6.20;;;;;;;;;;4962230;28;20046;-81
2023/09/03 07:29:44;;;;;;;6.72;5.38;;;;;;;;;;4964139;28;20031;-81
2023/09/03 07:32:10;;;;;;;6.93;6.22;;;;;;;;;;4948782;28;20042;-79
2023/09/03 07:34:36;;;;;;;11.02;7.03;;;;;;;;;;4947072;28;20030;-80
2023/09/03 07:37:03;;;;;;;8.70;6.78;;;;;;;;;;4950443;28;20034;-81
2023/09/03 07:39:28;;;;;;;6.07;5.47;;;;;;;;;;4968455;28;20042;-81
2023/09/03 07:41:56;;;;;;;11.52;5.43;;;;;;;;;;4952053;28;20636;-81
2023/09/03 07:44:23;;;;;;;6.45;5.55;;;;;;;;;;4962274;28;20064;-81
2023/09/03 07:46:49;;;;;;;7.70;5.35;;;;;;;;;;4941611;28;20038;-83
2023/09/03 07:49:15;;;;;;;10.57;5.18;;;;;;;;;;4974226;28;20544;-81
2023/09/03 07:51:42;;;;;;;11.57;5.53;;;;;;;;;;4958581;28;20042;-81
2023/09/03 07:54:08;;;;;;;10.10;5.82;;;;;;;;;;4942074;28;20109;-82
2023/09/03 07:56:34;;;;;;;11.38;6.88;;;;;;;;;;4974372;28;20038;-81
2023/09/03 07:59:04;;;;;;;15.18;9.95;;;;;;;;;;4974672;28;20113;-82
2023/09/03 08:01:34;;;;;;;8.45;4.35;;;;;;;;;;4943398;28;20044;-82
2023/09/03 08:04:01;;;;;;;7.10;4.78;;;;;;;;;;4958015;28;20121;-82
2023/09/03 08:06:54;;;;;;;9.43;4.50;;;;;;;;;;4973315;28;20050;-82
2023/09/03 08:09:23;;;;;;;4.95;4.18;;;;;;;;;;4973843;28;20042;-82
2023/09/03 08:11:58;;;;;;;12.13;3.50;;;;;;;;;;4944456;28;20134;-81
2023/09/03 08:14:24;;;;;;;7.40;3.70;;;;;;;;;;4941711;28;20045;-82
2023/09/03 08:16:50;;;;;;;6.93;3.45;;;;;;;;;;4942455;28;20180;-80
2023/09/03 08:19:16;;;;;;;4.25;3.85;;;;;;;;;;4942366;28;20550;-81
2023/09/03 08:21:42;;;;;;;7.65;4.38;;;;;;;;;;4942324;28;20499;-81
2023/09/03 08:24:09;;;;;;;4.95;3.45;;;;;;;;;;4942291;28;20073;-82
2023/09/03 08:26:36;;;;;;;6.03;4.38;;;;;;;;;;4974511;28;20418;-81
2023/09/03 08:29:08;;;;;;;4.97;3.25;;;;;;;;;;4943598;28;20026;-82
2023/09/03 08:31:35;;;;;;;4.63;3.10;;;;;;;;;;4977325;28;20045;-80
2023/09/03 08:34:01;;;;;;;3.30;2.92;;;;;;;;;;4959957;28;20042;-81
2023/09/03 08:36:28;;;;;;;3.92;3.28;;;;;;;;;;4961099;28;20553;-82
2023/09/03 08:38:54;;;;;;;6.78;3.13;;;;;;;;;;4977552;28;20036;-81
2023/09/03 08:44:36;;;;;;;6.97;3.00;;;;;;;;;;4977040;28;20026;-81
2023/09/03 08:47:03;;;;;;;4.13;2.92;;;;;;;;;;4960978;28;20046;-82
2023/09/03 08:49:32;;;;;;;4.93;2.90;;;;;;;;;;4977274;28;20026;-82
2023/09/03 08:51:58;;;;;;;5.45;4.88;;;;;;;;;;4961343;28;20038;-82
2023/09/03 08:54:51;;;;;;;8.82;6.10;;;;;;;;;;4973230;28;20125;-82
2023/09/03 08:57:18;;;;;;;5.20;4.20;;;;;;;;;;4973483;28;20046;-82
2023/09/03 08:59:44;;;;;;;7.13;5.03;;;;;;;;;;4941694;28;20041;-81
2023/09/03 09:02:24;;;;;;;5.88;4.95;;;;;;;;;;4973312;28;20042;-81
2023/09/03 09:05:04;;;;;;;4.80;4.35;;;;;;;;;;4958513;28;20039;-82
2023/09/03 09:07:37;;;;;;;9.65;3.90;;;;;;;;;;4973096;28;20158;-81
2023/09/03 09:10:05;;;;;;;4.55;2.70;;;;;;;;;;4943106;28;20038;-82
2023/09/03 09:12:42;;;;;;;3.78;2.53;;;;;;;;;;4957062;28;20058;-81
2023/09/03 09:15:08;;;;;;;4.28;2.55;;;;;;;;;;4941047;28;20050;-82
2023/09/03 09:17:43;;;;;;;3.08;2.20;;;;;;;;;;4956828;28;20048;-81
2023/09/03 09:20:12;;;;;;;8.00;3.10;;;;;;;;;;4974029;28;20522;-82
2023/09/03 09:22:45;;;;;;;2.90;2.58;;;;;;;;;;4959237;28;20034;-82
2023/09/03 09:25:24;;;;;;;3.25;2.60;;;;;;;;;;4942523;28;20042;-80
2023/09/03 09:27:54;;;;;;;7.45;3.03;;;;;;;;;;4975407;28;20062;-80
2023/09/03 09:30:21;;;;;;;3.35;3.15;;;;;;;;;;4982317;28;20035;-81
2023/09/03 09:33:18;;;;;;;6.15;3.78;;;;;;;;;;4980578;28;20128;-80
2023/09/03 09:35:44;;;;;;;6.95;3.20;;;;;;;;;;4973604;28;20039;-80
2023/09/03 09:38:10;;;;;;;7.15;3.83;;;;;;;;;;4973767;28;20046;-80
2023/09/03 09:40:37;;;;;;;5.18;3.40;;;;;;;;;;4972083;28;20114;-81
2023/09/03 09:43:07;;;;;;;4.55;2.90;;;;;;;;;;4956046;28;20189;-81
2023/09/03 09:45:33;;;;;;;4.43;3.08;;;;;;;;;;4971978;28;20536;-82
2023/09/03 09:48:05;;;;;;;2.58;2.47;;;;;;;;;;4956326;28;20057;-80
2023/09/03 09:51:00;;;;;;;2.55;2.45;;;;;;;;;;4972487;28;20057;-80
2023/09/03 09:53:26;;;;;;;3.50;2.80;;;;;;;;;;4939678;28;20038;-80
2023/09/03 09:55:59;;;;;;;3.58;2.63;;;;;;;;;;4940114;28;20047;-80
2023/09/03 09:58:38;;;;;;;2.92;2.58;;;;;;;;;;4955709;28;20034;-81
2023/09/03 10:01:33;;;;;;;3.10;2.90;;;;;;;;;;4955137;28;20097;-81
2023/09/03 10:04:27;;;;;;;7.47;5.65;;;;;;;;;;4955750;28;20026;-80
2023/09/03 10:06:54;;;;;;;4.10;3.22;;;;;;;;;;4939676;28;20042;-80
2023/09/03 10:09:20;;;;;;;2.80;2.55;;;;;;;;;;4971361;28;20440;-80
2023/09/03 10:11:46;;;;;;;3.17;2.85;;;;;;;;;;4939348;28;20508;-80
2023/09/03 10:14:12;;;;;;;4.05;2.85;;;;;;;;;;4955520;28;20038;-80
2023/09/03 10:16:39;;;;;;;10.23;2.90;;;;;;;;;;4971394;28;20051;-80
2023/09/03 10:19:05;;;;;;;2.85;2.60;;;;;;;;;;4972297;28;20050;-81
2023/09/03 10:21:51;;;;;;;3.92;2.22;;;;;;;;;;4942338;28;20046;-80
2023/09/03 10:24:17;;;;;;;3.92;2.40;;;;;;;;;;4972843;28;20031;-80
2023/09/03 10:26:48;;;;;;;3.58;3.28;;;;;;;;;;4971728;28;20042;-81
2023/09/03 10:29:15;;;;;;;3.80;2.95;;;;;;;;;;4972070;28;20045;-81
2023/09/03 10:31:41;;;;;;;3.67;2.83;;;;;;;;;;4955721;28;20042;-81
2023/09/03 10:34:10;;;;;;;2.70;2.50;;;;;;;;;;4972125;28;20103;-81
2023/09/03 10:37:03;;;;;;;2.95;2.50;;;;;;;;;;4973046;28;20531;-81
2023/09/03 10:40:01;;;;;;;2.70;2.50;;;;;;;;;;4946866;28;20427;-80
2023/09/03 10:42:29;;;;;;;3.53;2.63;;;;;;;;;;4958038;28;20070;-81
2023/09/03 10:44:56;;;;;;;3.45;3.25;;;;;;;;;;4978417;28;20042;-81
2023/09/03 10:47:47;;;;;;;3.80;2.70;;;;;;;;;;4964101;28;20051;-80
2023/09/03 10:50:13;;;;;;;2.55;2.30;;;;;;;;;;4946142;28;20119;-80
2023/09/03 10:52:40;;;;;;;7.13;2.80;;;;;;;;;;4956767;28;20081;-81
2023/09/03 10:55:20;;;;;;;4.65;2.80;;;;;;;;;;4943692;28;20050;-81
2023/09/03 10:58:16;;;;;;;9.77;2.78;;;;;;;;;;4959952;28;20034;-81
2023/09/03 11:01:03;;;;;;;3.83;2.85;;;;;;;;;;4974033;28;20065;-81
2023/09/03 11:03:29;;;;;;;5.28;2.80;;;;;;;;;;4974333;28;20037;-80
2023/09/03 11:06:23;;;;;;;2.97;2.75;;;;;;;;;;4941599;28;20035;-79
2023/09/03 11:08:59;;;;;;;3.58;2.83;;;;;;;;;;4971869;28;20038;-79
2023/09/03 11:11:27;;;;;;;2.70;2.47;;;;;;;;;;4954956;28;20525;-80
2023/09/03 11:13:53;;;;;;;3.13;2.72;;;;;;;;;;4955175;28;20038;-79
2023/09/03 11:16:28;;;;;;;2.90;2.53;;;;;;;;;;4972343;28;20050;-80
2023/09/03 11:18:54;;;;;;;3.08;2.88;;;;;;;;;;4939268;28;20039;-80
2023/09/03 11:21:22;;;;;;;2.80;2.60;;;;;;;;;;4971950;28;20046;-80
2023/09/03 11:24:15;;;;;;;5.03;3.22;;;;;;;;;;4939094;28;20030;-80
2023/09/03 11:26:41;;;;;;;6.75;3.40;;;;;;;;;;4971649;28;20047;-82
2023/09/03 11:29:20;;;;;;;4.68;3.00;;;;;;;;;;4971212;28;20380;-79
2023/09/03 11:31:50;;;;;;;4.35;2.90;;;;;;;;;;4954819;28;20097;-79
2023/09/03 11:34:28;;;;;;;4.72;3.00;;;;;;;;;;4954352;28;20038;-80
2023/09/03 11:36:55;;;;;;;3.85;3.45;;;;;;;;;;4954518;28;20046;-79
2023/09/03 11:39:24;;;;;;;3.70;3.28;;;;;;;;;;4954382;28;20066;-79
2023/09/03 11:41:51;;;;;;;3.55;3.20;;;;;;;;;;4954574;28;20050;-80
2023/09/03 11:44:23;;;;;;;3.35;2.70;;;;;;;;;;4955227;28;20031;-78
2023/09/03 11:46:58;;;;;;;2.70;2.50;;;;;;;;;;4954122;28;20046;-80
2023/09/03 11:49:25;;;;;;;3.03;2.80;;;;;;;;;;4954166;28;20031;-81
2023/09/03 11:51:52;;;;;;;3.25;3.05;;;;;;;;;;4970519;28;20415;-81
2023/09/03 11:54:24;;;;;;;2.70;2.50;;;;;;;;;;4954368;28;20082;-80
2023/09/03 11:56:57;;;;;;;2.53;2.33;;;;;;;;;;4971398;28;20042;-80
2023/09/03 11:59:25;;;;;;;3.53;3.25;;;;;;;;;;4954211;28;20035;-79
2023/09/03 12:01:51;;;;;;;4.13;2.65;;;;;;;;;;4954247;28;20039;-79
2023/09/03 12:04:21;;;;;;;5.13;2.45;;;;;;;;;;4957230;28;20043;-80
2023/09/03 12:06:48;;;;;;;3.30;3.00;;;;;;;;;;4957747;28;20046;-81
2023/09/03 12:09:24;;;;;;;3.10;2.80;;;;;;;;;;4958166;28;20051;-80
2023/09/03 12:11:50;;;;;;;2.80;2.60;;;;;;;;;;4974484;28;20041;-81
2023/09/03 12:14:34;;;;;;;4.00;3.58;;;;;;;;;;4974215;28;20039;-80
2023/09/03 12:17:01;;;;;;;3.38;3.08;;;;;;;;;;4958578;28;20053;-80
2023/09/03 12:19:38;;;;;;;2.90;2.70;;;;;;;;;;4973921;28;20122;-80
2023/09/03 12:22:09;;;;;;;4.38;2.72;;;;;;;;;;4959726;28;20039;-80
2023/09/03 12:24:35;;;;;;;3.45;2.53;;;;;;;;;;4945053;28;20033;-80
2023/09/03 12:27:04;;;;;;;2.78;2.58;;;;;;;;;;4986615;28;20053;-80
2023/09/03 12:29:35;;;;;;;2.60;2.40;;;;;;;;;;4952423;28;20045;-81
2023/09/03 12:32:01;;;;;;;3.75;2.65;;;;;;;;;;4978799;28;20043;-80
2023/09/03 12:34:38;;;;;;;2.95;2.65;;;;;;;;;;4949597;28;20125;-80
2023/09/03 12:37:06;;;;;;;2.90;2.65;;;;;;;;;;4980653;28;20042;-80
2023/09/03 12:39:32;;;;;;;3.50;3.20;;;;;;;;;;4964955;28;20158;-79
2023/09/03 12:41:59;;;;;;;5.78;2.90;;;;;;;;;;4963048;28;20049;-79
2023/09/03 12:44:26;;;;;;;3.63;3.35;;;;;;;;;;4943839;28;20408;-79
2023/09/03 12:46:53;;;;;;;2.55;2.35;;;;;;;;;;4974565;28;20047;-81
2023/09/03 12:49:19;;;;;;;4.70;2.60;;;;;;;;;;4956444;28;20569;-79
2023/09/03 12:51:45;;;;;;;4.15;2.40;;;;;;;;;;4957120;28;20456;-80
2023/09/03 12:54:12;;;;;;;2.60;2.50;;;;;;;;;;4976044;28;20053;-77
2023/09/03 12:56:38;;;;;;;3.03;2.83;;;;;;;;;;4993738;28;20041;-80
2023/09/03 12:59:05;;;;;;;2.50;2.40;;;;;;;;;;4976686;28;20042;-80
2023/09/03 13:01:31;;;;;;;2.53;2.40;;;;;;;;;;4960112;28;20419;-79
2023/09/03 13:03:58;;;;;;;2.85;2.65;;;;;;;;;;4960447;28;20096;-80
2023/09/03 13:06:24;;;;;;;3.05;2.70;;;;;;;;;;4959973;28;20499;-80
2023/09/03 13:08:51;;;;;;;5.50;2.92;;;;;;;;;;4943751;28;20042;-80
2023/09/03 13:11:18;;;;;;;4.78;2.45;;;;;;;;;;4975241;28;20040;-79
2023/09/03 13:14:12;;;;;;;3.10;2.83;;;;;;;;;;4990990;28;20073;-79
2023/09/03 13:16:46;;;;;;;7.03;2.88;;;;;;;;;;4958406;28;20525;-80
2023/09/03 13:19:12;;;;;;;3.13;2.83;;;;;;;;;;4943558;28;20038;-79
2023/09/03 13:21:39;;;;;;;2.92;2.70;;;;;;;;;;4943425;28;20030;-80
2023/09/03 13:24:05;;;;;;;3.80;2.78;;;;;;;;;;4993256;28;20041;-80
2023/09/03 13:26:31;;;;;;;2.78;2.58;;;;;;;;;;4959639;28;20198;-80
2023/09/03 13:28:58;;;;;;;2.90;2.60;;;;;;;;;;4975582;28;20038;-80
2023/09/03 13:31:25;;;;;;;2.80;2.60;;;;;;;;;;4959176;28;20034;-81
2023/09/03 13:33:52;;;;;;;3.08;2.72;;;;;;;;;;4992862;28;20038;-79
2023/09/03 13:36:18;;;;;;;2.83;2.60;;;;;;;;;;4974984;28;20566;-79
2023/09/03 13:38:45;;;;;;;2.78;2.60;;;;;;;;;;4943451;28;20022;-80
2023/09/03 13:41:36;;;;;;;3.38;3.08;;;;;;;;;;4959432;28;20133;-79
2023/09/03 13:44:03;;;;;;;8.32;3.20;;;;;;;;;;4975251;28;20038;-80
2023/09/03 13:46:52;;;;;;;3.15;2.88;;;;;;;;;;4944525;28;20034;-80
2023/09/03 13:49:50;;;;;;;6.93;2.80;;;;;;;;;;4943526;28;20034;-80
2023/09/03 13:52:16;;;;;;;3.30;2.38;;;;;;;;;;4921898;28;20034;-81
2023/09/03 13:54:44;;;;;;;2.92;2.60;;;;;;;;;;4934477;29;20054;-80
2023/09/03 13:57:38;;;;;;;3.10;2.90;;;;;;;;;;4920279;29;20295;-81
2023/09/03 14:00:05;;;;;;;5.07;3.03;;;;;;;;;;4937070;29;20058;-79
2023/09/03 14:02:32;;;;;;;3.15;2.85;;;;;;;;;;4921397;29;20061;-79
2023/09/03 14:04:59;;;;;;;4.47;3.22;;;;;;;;;;4921725;29;20048;-79
2023/09/03 14:07:27;;;;;;;3.17;2.40;;;;;;;;;;4936699;29;20055;-80
2023/09/03 14:10:07;;;;;;;3.00;2.75;;;;;;;;;;4938246;29;20031;-80
2023/09/03 14:12:35;;;;;;;6.10;2.70;;;;;;;;;;4952657;29;20053;-79
2023/09/03 14:15:02;;;;;;;3.10;2.60;;;;;;;;;;4935716;29;20035;-80
2023/09/03 14:17:32;;;;;;;4.05;2.40;;;;;;;;;;4955582;28;20053;-80
2023/09/03 14:20:09;;;;;;;4.28;2.55;;;;;;;;;;4955484;28;20491;-81
2023/09/03 14:22:35;;;;;;;4.65;2.65;;;;;;;;;;4950141;28;20058;-80
2023/09/03 14:25:10;;;;;;;3.03;2.75;;;;;;;;;;4963596;28;20078;-78
2023/09/03 14:27:37;;;;;;;6.93;2.90;;;;;;;;;;4931223;29;20104;-78
2023/09/03 14:30:03;;;;;;;3.05;2.78;;;;;;;;;;4946269;28;20031;-78
2023/09/03 14:32:32;;;;;;;3.03;2.47;;;;;;;;;;4954558;28;20038;-79
2023/09/03 14:34:58;;;;;;;3.63;2.60;;;;;;;;;;4954460;28;20089;-78
2023/09/03 14:37:24;;;;;;;3.15;2.88;;;;;;;;;;4938392;28;20042;-79
2023/09/03 14:39:50;;;;;;;4.68;2.70;;;;;;;;;;4960461;28;20330;-79
2023/09/03 14:42:17;;;;;;;3.10;2.85;;;;;;;;;;4919464;29;20051;-78
2023/09/03 14:44:44;;;;;;;3.83;2.60;;;;;;;;;;4935022;29;20098;-80
2023/09/03 14:47:10;;;;;;;2.70;2.50;;;;;;;;;;4952557;28;20053;-79
2023/09/03 14:49:37;;;;;;;3.85;2.92;;;;;;;;;;4937805;28;20030;-78
2023/09/03 14:52:03;;;;;;;3.85;2.50;;;;;;;;;;4923318;29;20094;-78
2023/09/03 14:54:29;;;;;;;4.18;3.75;;;;;;;;;;4963949;28;20034;-78
2023/09/03 14:57:28;;;;;;;4.63;2.72;;;;;;;;;;4946005;28;20078;-78
2023/09/03 14:59:54;;;;;;;3.50;3.25;;;;;;;;;;4941270;28;20101;-79
2023/09/03 15:02:21;;;;;;;4.60;2.63;;;;;;;;;;4948937;28;20034;-81
2023/09/03 15:04:47;;;;;;;3.83;2.95;;;;;;;;;;4931014;28;20467;-80